createdAt,value
2022-12-02T00:01:10.775Z,13.73
2022-12-02T00:03:17.041Z,13.32
2022-12-02T00:05:30.882Z,13.90
2022-12-02T00:07:33.939Z,13.63
2022-12-02T00:09:36.565Z,12.77
2022-12-02T00:11:40.485Z,14.18
2022-12-02T00:13:43.455Z,13.30
2022-12-02T00:15:47.109Z,13.68
2022-12-02T00:17:48.677Z,13.25
2022-12-02T00:19:50.504Z,11.65
2022-12-02T00:23:55.299Z,12.27
2022-12-02T00:25:57.156Z,13.40
2022-12-02T00:30:00.191Z,12.40
2022-12-02T00:32:01.864Z,12.60
2022-12-02T00:34:04.396Z,13.13
2022-12-02T00:36:07.095Z,12.95
2022-12-02T00:38:08.698Z,13.38
2022-12-02T00:40:12.627Z,13.25
2022-12-02T00:42:14.177Z,13.20
2022-12-02T00:44:16.104Z,13.63
2022-12-02T00:46:17.702Z,14.68
2022-12-02T00:48:19.341Z,13.68
2022-12-02T00:50:21.067Z,13.13
2022-12-02T00:52:22.679Z,12.55
2022-12-02T00:54:24.400Z,14.38
2022-12-02T00:58:29.309Z,13.20
2022-12-02T01:02:32.331Z,12.57
2022-12-02T01:04:33.973Z,12.65
2022-12-02T01:06:35.512Z,12.80
2022-12-02T01:08:37.118Z,12.60
2022-12-02T01:10:38.779Z,12.85
2022-12-02T01:12:41.793Z,13.40
2022-12-02T01:14:43.431Z,13.57
2022-12-02T01:16:45.175Z,12.73
2022-12-02T01:20:48.262Z,13.68
2022-12-02T01:22:49.835Z,13.35
2022-12-02T01:24:51.547Z,12.52
2022-12-02T01:28:56.044Z,12.05
2022-12-02T01:30:57.645Z,14.15
2022-12-02T01:32:59.202Z,13.80
2022-12-02T01:35:00.741Z,13.63
2022-12-02T01:37:02.300Z,14.52
2022-12-02T01:39:04.351Z,13.20
2022-12-02T01:41:06.960Z,14.90
2022-12-02T01:43:08.911Z,13.23
2022-12-02T01:45:12.719Z,13.77
2022-12-02T01:47:14.577Z,13.35
2022-12-02T01:49:16.370Z,14.10
2022-12-02T01:53:19.495Z,13.00
2022-12-02T01:55:23.736Z,12.73
2022-12-02T01:57:30.861Z,13.45
2022-12-02T01:59:32.492Z,13.95
2022-12-02T02:01:35.652Z,14.02
2022-12-02T02:03:37.342Z,13.18
2022-12-02T02:05:39.036Z,13.05
2022-12-02T02:07:42.658Z,13.00
2022-12-02T02:09:44.478Z,13.88
2022-12-02T02:13:47.854Z,12.73
2022-12-02T02:15:49.635Z,13.75
2022-12-02T02:19:56.495Z,11.23
2022-12-02T02:21:59.681Z,14.73
2022-12-02T02:24:03.015Z,14.00
2022-12-02T02:26:04.889Z,14.32
2022-12-02T02:28:07.838Z,14.73
2022-12-02T02:30:10.350Z,13.45
2022-12-02T02:32:12.501Z,13.68
2022-12-02T02:34:14.486Z,13.23
2022-12-02T02:36:16.589Z,14.23
2022-12-02T02:38:22.351Z,12.95
2022-12-02T02:40:27.725Z,13.75
2022-12-02T02:42:29.710Z,13.50
2022-12-02T02:44:31.665Z,13.52
2022-12-02T02:46:33.707Z,12.52
2022-12-02T02:48:36.421Z,14.23
2022-12-02T02:50:40.633Z,13.27
2022-12-02T02:52:42.706Z,13.60
2022-12-02T02:54:44.453Z,13.20
2022-12-02T02:56:47.988Z,13.95
2022-12-02T02:58:50.059Z,13.15
2022-12-02T03:00:54.387Z,13.90
2022-12-02T03:02:56.694Z,12.98
2022-12-02T03:04:58.874Z,13.32
2022-12-02T03:07:00.787Z,13.93
2022-12-02T03:09:04.427Z,13.73
2022-12-02T03:11:07.122Z,13.52
2022-12-02T03:13:10.464Z,14.93
2022-12-02T03:15:12.452Z,13.55
2022-12-02T03:17:14.666Z,14.07
2022-12-02T03:19:17.469Z,13.65
2022-12-02T03:21:20.859Z,11.80
2022-12-02T03:23:22.605Z,12.65
2022-12-02T03:25:24.278Z,13.95
2022-12-02T03:27:26.956Z,13.88
2022-12-02T03:29:30.651Z,14.23
2022-12-02T03:31:36.707Z,13.73
2022-12-02T03:33:38.843Z,13.90
2022-12-02T03:35:40.611Z,13.40
2022-12-02T03:37:42.365Z,12.63
2022-12-02T03:39:44.158Z,12.70
2022-12-02T03:43:48.249Z,12.18
2022-12-02T03:45:51.477Z,13.70
2022-12-02T03:47:53.324Z,12.73
2022-12-02T03:49:55.105Z,13.25
2022-12-02T03:54:00.399Z,12.05
2022-12-02T03:56:02.791Z,12.38
2022-12-02T03:58:04.731Z,12.60
2022-12-02T04:00:14.071Z,12.75
2022-12-02T04:02:18.973Z,13.38
2022-12-02T04:04:20.782Z,12.98
2022-12-02T04:06:22.453Z,12.63
2022-12-02T04:08:24.158Z,12.02
2022-12-02T04:10:25.818Z,12.52
2022-12-02T04:12:27.429Z,11.73
2022-12-02T04:14:29.079Z,13.00
2022-12-02T04:16:30.756Z,12.52
2022-12-02T04:18:33.927Z,12.43
2022-12-02T04:20:35.535Z,13.80
2022-12-02T04:22:37.202Z,12.43
2022-12-02T04:24:38.882Z,13.02
2022-12-02T04:26:43.593Z,12.18
2022-12-02T04:28:45.987Z,11.35
2022-12-02T04:32:49.167Z,11.55
2022-12-02T04:34:52.290Z,12.40
2022-12-02T04:36:54.144Z,11.98
2022-12-02T04:38:55.703Z,11.32
2022-12-02T04:40:57.277Z,10.82
2022-12-02T04:42:58.941Z,11.40
2022-12-02T04:45:00.863Z,12.18
2022-12-02T04:47:02.402Z,10.98
2022-12-02T04:49:04.085Z,12.48
2022-12-02T04:51:07.101Z,11.80
2022-12-02T04:53:08.617Z,10.80
2022-12-02T04:55:10.325Z,10.20
2022-12-02T04:57:11.895Z,9.63
2022-12-02T04:59:13.438Z,11.27
2022-12-02T05:01:15.340Z,11.90
2022-12-02T05:03:16.975Z,11.35
2022-12-02T05:05:18.602Z,9.95
2022-12-02T05:07:21.704Z,10.18
2022-12-02T05:09:23.336Z,10.82
2022-12-02T05:11:24.909Z,9.85
2022-12-02T05:13:26.514Z,9.90
2022-12-02T05:15:28.061Z,10.82
2022-12-02T05:17:29.589Z,9.70
2022-12-02T05:19:31.166Z,11.27
2022-12-02T05:21:32.746Z,10.95
2022-12-02T05:23:35.685Z,10.48
2022-12-02T05:25:37.259Z,9.25
2022-12-02T05:27:38.944Z,9.70
2022-12-02T05:29:40.521Z,9.82
2022-12-02T05:31:42.208Z,10.15
2022-12-02T05:33:43.829Z,9.57
2022-12-02T05:35:45.495Z,10.48
2022-12-02T05:37:47.094Z,9.98
2022-12-02T05:39:50.147Z,10.38
2022-12-02T05:41:52.124Z,10.38
2022-12-02T05:43:54.382Z,10.60
2022-12-02T05:45:59.120Z,10.00
2022-12-02T05:48:00.736Z,8.90
2022-12-02T05:50:11.163Z,9.40
2022-12-02T05:52:22.236Z,9.73
2022-12-02T05:54:24.780Z,9.93
2022-12-02T05:56:28.648Z,10.32
2022-12-02T05:58:30.354Z,9.27
2022-12-02T06:00:31.899Z,9.60
2022-12-02T06:02:40.879Z,9.13
2022-12-02T06:04:42.904Z,10.15
2022-12-02T06:06:44.620Z,9.48
2022-12-02T06:08:49.224Z,9.20
2022-12-02T06:10:53.949Z,9.10
2022-12-02T06:12:59.818Z,8.88
2022-12-02T06:15:01.422Z,8.98
2022-12-02T06:17:13.454Z,8.68
2022-12-02T06:19:22.452Z,9.00
2022-12-02T06:21:24.190Z,9.38
2022-12-02T06:23:27.822Z,9.10
2022-12-02T06:25:32.465Z,8.63
2022-12-02T06:27:34.434Z,9.25
2022-12-02T06:29:37.709Z,8.82
2022-12-02T06:31:41.594Z,8.98
2022-12-02T06:33:44.988Z,8.23
2022-12-02T06:35:49.597Z,8.52
2022-12-02T06:37:53.477Z,8.18
2022-12-02T06:42:22.257Z,8.65
2022-12-02T06:44:25.861Z,9.90
2022-12-02T06:46:28.859Z,8.77
2022-12-02T06:48:32.710Z,8.52
2022-12-02T06:50:42.090Z,9.43
2022-12-02T06:52:46.135Z,8.40
2022-12-02T06:54:48.100Z,13.57
2022-12-02T06:56:51.361Z,8.13
2022-12-02T06:59:00.075Z,8.55
2022-12-02T07:01:28.751Z,9.45
2022-12-02T07:03:34.330Z,8.27
2022-12-02T07:05:35.901Z,8.07
2022-12-02T07:07:37.671Z,8.25
2022-12-02T07:11:46.610Z,7.68
2022-12-02T07:13:49.024Z,9.05
2022-12-02T07:15:50.863Z,8.70
2022-12-02T07:20:13.205Z,9.13
2022-12-02T07:22:16.650Z,8.35
2022-12-02T07:24:20.941Z,8.48
2022-12-02T07:26:22.547Z,8.88
2022-12-02T07:28:27.858Z,7.55
2022-12-02T07:30:31.651Z,9.07
2022-12-02T07:32:33.300Z,9.10
2022-12-02T07:34:34.844Z,9.10
2022-12-02T07:36:38.026Z,8.68
2022-12-02T07:41:01.116Z,7.22
2022-12-02T07:43:02.794Z,8.73
2022-12-02T07:45:05.054Z,9.10
2022-12-02T07:47:06.829Z,9.30
2022-12-02T07:51:10.403Z,7.45
2022-12-02T07:53:13.290Z,7.45
2022-12-02T07:55:15.024Z,8.93
2022-12-02T07:57:16.526Z,8.63
2022-12-02T07:59:18.112Z,9.18
2022-12-02T08:01:20.342Z,9.07
2022-12-02T08:03:21.970Z,9.02
2022-12-02T08:05:24.303Z,9.27
2022-12-02T08:07:25.905Z,8.77
2022-12-02T08:09:28.914Z,7.72
2022-12-02T08:11:30.471Z,7.10
2022-12-02T08:13:32.108Z,8.07
2022-12-02T08:15:33.674Z,7.35
2022-12-02T08:17:35.645Z,8.48
2022-12-02T08:19:37.206Z,7.70
2022-12-02T08:21:38.931Z,8.52
2022-12-02T08:23:40.492Z,8.32
2022-12-02T08:25:43.425Z,9.20
2022-12-02T08:27:45.764Z,9.77
2022-12-02T08:29:47.926Z,7.90
2022-12-02T08:31:49.570Z,9.38
2022-12-02T08:33:51.507Z,8.95
2022-12-02T08:35:53.105Z,8.32
2022-12-02T08:37:54.854Z,9.15
2022-12-02T08:39:56.447Z,8.32
2022-12-02T08:41:59.341Z,9.15
2022-12-02T08:44:01.017Z,8.93
2022-12-02T08:46:02.745Z,8.88
2022-12-02T08:50:07.291Z,7.57
2022-12-02T08:52:09.061Z,7.82
2022-12-02T08:56:12.109Z,8.25
2022-12-02T08:58:15.250Z,7.47
2022-12-02T09:00:17.084Z,8.50
2022-12-02T09:04:37.195Z,7.95
2022-12-02T09:06:39.194Z,7.78
2022-12-02T09:08:40.893Z,8.30
2022-12-02T09:10:42.600Z,8.73
2022-12-02T09:12:44.259Z,9.20
2022-12-02T09:14:47.386Z,9.60
2022-12-02T09:16:48.987Z,8.60
2022-12-02T09:18:50.537Z,10.07
2022-12-02T09:20:52.079Z,8.82
2022-12-02T09:22:53.632Z,8.43
2022-12-02T09:24:55.307Z,9.70
2022-12-02T09:26:56.947Z,8.63
2022-12-02T09:28:58.550Z,9.70
2022-12-02T09:31:01.564Z,8.05
2022-12-02T09:33:03.633Z,9.15
2022-12-02T09:35:06.216Z,9.20
2022-12-02T09:37:09.554Z,9.55
2022-12-02T09:39:11.369Z,8.60
2022-12-02T09:41:13.232Z,9.30
2022-12-02T09:45:16.532Z,8.75
2022-12-02T09:47:20.776Z,7.28
2022-12-02T09:49:22.358Z,9.40
2022-12-02T09:51:24.500Z,9.02
2022-12-02T09:53:32.994Z,8.80
2022-12-02T09:55:36.838Z,9.60
2022-12-02T09:57:40.662Z,8.43
2022-12-02T09:59:43.150Z,8.93
2022-12-02T10:01:47.093Z,8.88
2022-12-02T10:03:51.205Z,9.85
2022-12-02T10:05:53.306Z,7.85
2022-12-02T10:07:57.456Z,8.48
2022-12-02T10:10:00.653Z,9.38
2022-12-02T10:12:02.326Z,9.80
2022-12-02T10:14:04.375Z,9.32
2022-12-02T10:16:11.764Z,7.05
2022-12-02T10:18:17.443Z,8.63
2022-12-02T10:20:23.052Z,9.40
2022-12-02T10:22:24.608Z,9.70
2022-12-02T10:26:48.149Z,8.43
2022-12-02T10:29:01.454Z,9.63
2022-12-02T10:31:09.799Z,8.95
2022-12-02T10:33:13.086Z,9.82
2022-12-02T10:35:14.719Z,9.15
2022-12-02T10:37:24.781Z,9.95
2022-12-02T10:39:34.139Z,10.20
2022-12-02T10:41:37.605Z,10.18
2022-12-02T10:43:39.318Z,10.32
2022-12-02T10:45:41.191Z,7.57
2022-12-02T10:47:43.132Z,8.60
2022-12-02T10:49:48.848Z,8.30
2022-12-02T10:51:50.457Z,9.55
2022-12-02T10:53:53.662Z,10.68
2022-12-02T10:55:55.810Z,10.15
2022-12-02T10:57:58.461Z,9.70
2022-12-02T11:00:04.322Z,10.10
2022-12-02T11:02:24.540Z,9.70
2022-12-02T11:04:28.416Z,10.02
2022-12-02T11:06:31.278Z,8.63
2022-12-02T11:08:33.081Z,9.15
2022-12-02T11:13:03.895Z,9.30
2022-12-02T11:15:33.145Z,8.43
2022-12-02T11:17:58.656Z,9.75
2022-12-02T11:20:29.900Z,9.35
2022-12-02T11:22:47.783Z,10.18
2022-12-02T11:24:49.614Z,9.98
2022-12-02T11:27:16.566Z,11.25
2022-12-02T11:29:19.947Z,8.18
2022-12-02T11:31:26.328Z,10.00
2022-12-02T11:34:01.120Z,9.57
2022-12-02T11:36:14.140Z,9.43
2022-12-02T11:38:26.729Z,9.70
2022-12-02T11:40:59.036Z,10.07
2022-12-02T11:43:33.982Z,10.45
2022-12-02T11:48:16.006Z,9.68
2022-12-02T11:50:24.963Z,8.57
2022-12-02T11:52:26.601Z,9.73
2022-12-02T11:54:29.158Z,9.82
2022-12-02T11:56:37.164Z,10.35
2022-12-02T11:58:38.850Z,10.07
2022-12-02T12:00:40.490Z,10.15
2022-12-02T12:02:42.187Z,9.77
2022-12-02T12:06:54.961Z,9.75
2022-12-02T12:08:57.379Z,9.15
2022-12-02T12:11:17.402Z,9.35
2022-12-02T12:13:21.282Z,8.23
2022-12-02T12:15:59.100Z,8.30
2022-12-02T12:18:00.698Z,8.60
2022-12-02T12:20:04.310Z,8.60
2022-12-02T12:22:25.273Z,11.18
2022-12-02T12:24:36.326Z,9.32
2022-12-02T12:26:37.976Z,9.98
2022-12-02T12:28:39.577Z,9.80
2022-12-02T12:30:41.338Z,11.63
2022-12-02T12:34:44.545Z,9.23
2022-12-02T12:36:47.828Z,11.18
2022-12-02T12:38:49.521Z,8.40
2022-12-02T12:40:51.119Z,9.38
2022-12-02T12:42:52.697Z,10.18
2022-12-02T12:44:54.553Z,10.10
2022-12-02T12:46:56.287Z,8.50
2022-12-02T12:48:58.029Z,9.95
2022-12-02T12:50:59.737Z,10.25
2022-12-02T12:53:02.767Z,9.35
2022-12-02T12:55:04.929Z,9.43
2022-12-02T12:57:06.520Z,9.45
2022-12-02T12:59:08.102Z,9.80
2022-12-02T13:01:10.012Z,10.07
2022-12-02T13:05:13.541Z,9.80
2022-12-02T13:09:20.843Z,9.35
2022-12-02T13:11:22.514Z,8.15
2022-12-02T13:13:24.223Z,9.80
2022-12-02T13:15:26.201Z,10.50
2022-12-02T13:17:28.159Z,10.15
2022-12-02T13:19:30.215Z,9.20
2022-12-02T13:21:32.087Z,10.23
2022-12-02T13:25:37.109Z,8.55
2022-12-02T13:27:39.399Z,9.77
2022-12-02T13:29:41.132Z,8.50
2022-12-02T13:31:43.161Z,8.73
2022-12-02T13:33:45.164Z,9.55
2022-12-02T13:35:46.993Z,9.73
2022-12-02T13:39:50.858Z,10.60
2022-12-02T13:41:54.306Z,9.48
2022-12-02T13:43:56.157Z,10.55
2022-12-02T13:47:59.500Z,10.02
2022-12-02T13:50:01.446Z,11.00
2022-12-02T13:52:03.270Z,10.80
2022-12-02T13:56:07.175Z,10.93
2022-12-02T13:58:10.263Z,11.18
2022-12-02T14:00:13.321Z,9.88
2022-12-02T14:02:15.001Z,11.13
2022-12-02T14:04:16.784Z,11.05
2022-12-02T14:08:20.194Z,8.65
2022-12-02T14:10:21.875Z,9.27
2022-12-02T14:12:23.471Z,8.98
2022-12-02T14:14:26.411Z,9.80
2022-12-02T14:16:28.271Z,9.60
2022-12-02T14:20:31.307Z,8.63
2022-12-02T14:22:32.965Z,7.20
2022-12-02T14:24:34.689Z,7.85
2022-12-02T14:26:36.835Z,9.18
2022-12-02T14:28:38.516Z,7.70
2022-12-02T14:30:41.607Z,8.20
2022-12-02T14:32:43.351Z,10.32
2022-12-02T14:34:45.114Z,7.65
2022-12-02T14:36:46.854Z,9.77
2022-12-02T14:38:48.659Z,9.45
2022-12-02T14:40:50.251Z,9.45
2022-12-02T14:42:51.913Z,9.05
2022-12-02T14:44:53.816Z,11.23
2022-12-02T14:46:57.197Z,8.88
2022-12-02T14:49:23.233Z,10.73
2022-12-02T14:51:20.294Z,9.77
2022-12-02T14:53:22.206Z,9.68
2022-12-02T14:55:23.797Z,10.68
2022-12-02T14:57:25.370Z,11.55
2022-12-02T14:59:27.083Z,11.20
2022-12-02T15:01:28.776Z,10.60
2022-12-02T15:03:31.840Z,10.90
2022-12-02T15:05:33.449Z,10.68
2022-12-02T15:07:35.178Z,12.93
2022-12-02T15:09:36.821Z,11.40
2022-12-02T15:11:38.441Z,12.18
2022-12-02T15:13:39.992Z,12.35
2022-12-02T15:15:41.736Z,11.50
2022-12-02T15:17:43.350Z,12.20
2022-12-02T15:19:46.373Z,12.90
2022-12-02T15:21:48.068Z,11.43
2022-12-02T15:23:49.608Z,10.77
2022-12-02T15:25:51.301Z,13.93
2022-12-02T15:27:52.842Z,12.35
2022-12-02T15:29:54.623Z,12.10
2022-12-02T15:33:57.695Z,11.88
2022-12-02T15:36:01.001Z,10.52
2022-12-02T15:38:02.770Z,11.63
2022-12-02T15:40:05.831Z,11.00
2022-12-02T15:42:07.411Z,9.32
2022-12-02T15:44:09.274Z,12.48
2022-12-02T15:48:12.483Z,9.30
2022-12-02T15:50:14.047Z,11.15
2022-12-02T15:52:17.216Z,11.25
2022-12-02T15:54:19.180Z,10.23
2022-12-02T15:56:20.743Z,9.90
2022-12-02T15:58:22.289Z,10.93
2022-12-02T16:00:24.074Z,9.63
2022-12-02T16:02:25.695Z,9.38
2022-12-02T16:04:27.343Z,9.63
2022-12-02T16:06:28.969Z,9.15
2022-12-02T16:08:31.865Z,9.98
2022-12-02T16:10:33.579Z,11.32
2022-12-02T16:12:35.297Z,11.15
2022-12-02T16:14:37.112Z,9.65
2022-12-02T16:18:40.788Z,9.23
2022-12-02T16:20:42.488Z,10.07
2022-12-02T16:22:44.296Z,12.38
2022-12-02T16:24:47.589Z,11.00
2022-12-02T16:26:55.050Z,11.57
2022-12-02T16:28:57.221Z,8.27
2022-12-02T16:30:59.067Z,11.30
2022-12-02T16:35:02.414Z,9.85
2022-12-02T16:39:05.910Z,8.73
2022-12-02T16:41:09.079Z,10.88
2022-12-02T16:43:10.765Z,10.00
2022-12-02T16:45:12.825Z,9.90
2022-12-02T16:47:18.127Z,10.90
2022-12-02T16:49:20.158Z,10.60
2022-12-02T16:51:21.977Z,10.70
2022-12-02T16:55:25.920Z,11.90
2022-12-02T16:57:28.828Z,9.52
2022-12-02T16:59:30.406Z,11.60
2022-12-02T17:01:32.092Z,11.30
2022-12-02T17:03:33.676Z,12.60
2022-12-02T17:05:35.179Z,11.48
2022-12-02T17:07:36.759Z,8.32
2022-12-02T17:09:38.274Z,11.48
2022-12-02T17:11:39.828Z,10.18
2022-12-02T17:13:42.768Z,10.93
2022-12-02T17:15:44.419Z,11.80
2022-12-02T17:17:46.984Z,10.90
2022-12-02T17:19:48.922Z,10.35
2022-12-02T17:21:50.521Z,12.07
2022-12-02T17:23:52.441Z,12.55
2022-12-02T17:27:55.716Z,9.93
2022-12-02T17:29:58.733Z,12.15
2022-12-02T17:32:00.745Z,11.05
2022-12-02T17:34:02.412Z,12.13
2022-12-02T17:36:05.311Z,11.93
2022-12-02T17:38:07.082Z,11.52
2022-12-02T17:40:09.751Z,12.60
2022-12-02T17:42:11.278Z,12.10
2022-12-02T17:44:16.627Z,13.50
2022-12-02T17:46:21.696Z,13.02
2022-12-02T17:48:23.301Z,11.98
2022-12-02T17:50:24.885Z,11.98
2022-12-02T17:52:26.462Z,13.63
2022-12-02T17:54:28.019Z,11.38
2022-12-02T17:56:29.744Z,12.60
2022-12-02T17:58:31.397Z,11.75
2022-12-02T18:00:33.066Z,12.55
2022-12-02T18:02:36.124Z,11.68
2022-12-02T18:04:37.738Z,11.52
2022-12-02T18:06:39.258Z,13.13
2022-12-02T18:08:40.911Z,13.05
2022-12-02T18:10:42.587Z,12.93
2022-12-02T18:12:44.156Z,11.00
2022-12-02T18:14:45.837Z,14.05
2022-12-02T18:16:47.560Z,14.63
2022-12-02T18:18:50.484Z,10.05
2022-12-02T18:20:52.102Z,10.52
2022-12-02T18:22:53.750Z,10.45
2022-12-02T18:24:55.379Z,11.95
2022-12-02T18:26:56.926Z,12.45
2022-12-02T18:28:58.809Z,12.95
2022-12-02T18:33:01.736Z,13.45
2022-12-02T18:35:05.795Z,10.00
2022-12-02T18:37:07.342Z,13.75
2022-12-02T18:39:08.985Z,13.00
2022-12-02T18:41:10.556Z,13.77
2022-12-02T18:43:12.231Z,11.95
2022-12-02T18:45:14.228Z,12.02
2022-12-02T18:47:15.774Z,13.05
2022-12-02T18:49:17.326Z,12.23
2022-12-02T18:51:20.251Z,12.13
2022-12-02T18:53:21.812Z,10.43
2022-12-02T18:55:23.364Z,15.13
2022-12-02T18:57:25.085Z,10.73
2022-12-02T18:59:26.763Z,12.70
2022-12-02T19:01:33.836Z,13.10
2022-12-02T19:03:36.047Z,13.38
2022-12-02T19:05:37.651Z,12.88
2022-12-02T19:07:40.562Z,11.95
2022-12-02T19:09:42.117Z,10.25
2022-12-02T19:11:43.874Z,14.15
2022-12-02T19:13:45.521Z,13.15
2022-12-02T19:15:47.214Z,14.20
2022-12-02T19:17:48.745Z,14.45
2022-12-02T19:19:50.266Z,14.55
2022-12-02T19:21:51.913Z,12.45
2022-12-02T19:23:54.996Z,13.50
2022-12-02T19:25:56.800Z,13.77
2022-12-02T19:27:59.020Z,13.85
2022-12-02T19:30:00.767Z,12.75
2022-12-02T19:32:02.312Z,15.02
2022-12-02T19:34:03.931Z,14.95
2022-12-02T19:36:06.163Z,13.65
2022-12-02T19:38:13.455Z,14.75
2022-12-02T19:40:18.811Z,11.73
2022-12-02T19:42:20.725Z,14.55
2022-12-02T19:46:24.295Z,13.80
2022-12-02T19:48:26.291Z,14.73
2022-12-02T19:52:29.833Z,14.68
2022-12-02T19:54:31.943Z,12.27
2022-12-02T19:56:35.112Z,13.75
2022-12-02T19:58:37.105Z,15.25
2022-12-02T20:00:39.235Z,15.68
2022-12-02T20:02:41.956Z,15.48
2022-12-02T20:04:43.896Z,13.00
2022-12-02T20:08:47.594Z,10.85
2022-12-02T20:12:52.551Z,13.73
2022-12-02T20:14:54.713Z,14.35
2022-12-02T20:16:56.895Z,11.60
2022-12-02T20:21:00.322Z,14.63
2022-12-02T20:25:08.771Z,14.57
2022-12-02T20:27:10.905Z,16.52
2022-12-02T20:29:14.501Z,12.63
2022-12-02T20:31:16.331Z,14.57
2022-12-02T20:35:20.117Z,15.13
2022-12-02T20:37:22.069Z,13.45
2022-12-02T20:39:24.144Z,14.27
2022-12-02T20:41:25.841Z,15.82
2022-12-02T20:43:27.480Z,14.73
2022-12-02T20:45:30.448Z,11.90
2022-12-02T20:47:32.003Z,15.13
2022-12-02T20:49:36.353Z,16.00
2022-12-02T20:51:37.924Z,14.13
2022-12-02T20:53:39.528Z,12.52
2022-12-02T20:55:41.173Z,13.60
2022-12-02T20:57:42.766Z,14.50
2022-12-02T20:59:45.148Z,15.50
2022-12-02T21:01:48.279Z,14.48
2022-12-02T21:03:50.008Z,13.15
2022-12-02T21:05:51.739Z,13.38
2022-12-02T21:07:53.367Z,14.27
2022-12-02T21:09:55.035Z,13.90
2022-12-02T21:11:57.009Z,11.05
2022-12-02T21:13:58.547Z,14.38
2022-12-02T21:16:00.317Z,13.82
2022-12-02T21:18:03.479Z,14.68
2022-12-02T21:20:06.248Z,15.75
2022-12-02T21:22:07.905Z,15.10
2022-12-02T21:24:09.526Z,14.27
2022-12-02T21:26:13.283Z,14.65
2022-12-02T21:28:14.812Z,13.05
2022-12-02T21:30:16.722Z,13.40
2022-12-02T21:34:21.000Z,14.25
2022-12-02T21:36:22.905Z,13.73
2022-12-02T21:40:25.957Z,13.52
2022-12-02T21:42:27.536Z,13.45
2022-12-02T21:44:29.073Z,15.95
2022-12-02T21:46:30.660Z,12.43
2022-12-02T21:48:32.277Z,15.48
2022-12-02T21:50:35.224Z,13.23
2022-12-02T21:52:36.810Z,13.25
2022-12-02T21:54:38.438Z,12.95
2022-12-02T21:56:40.002Z,15.68
2022-12-02T21:58:41.620Z,17.00
2022-12-02T22:00:43.270Z,15.32
2022-12-02T22:02:44.924Z,15.30
2022-12-02T22:04:46.529Z,13.98
2022-12-02T22:06:49.610Z,15.05
2022-12-02T22:08:51.299Z,14.77
2022-12-02T22:10:52.968Z,13.52
2022-12-02T22:12:54.721Z,13.35
2022-12-02T22:14:56.315Z,12.95
2022-12-02T22:16:57.990Z,13.55
2022-12-02T22:18:59.677Z,13.13
2022-12-02T22:21:01.219Z,15.70
2022-12-02T22:23:04.130Z,13.57
2022-12-02T22:25:07.145Z,15.30
2022-12-02T22:27:08.677Z,14.27
2022-12-02T22:29:10.233Z,11.45
2022-12-02T22:31:11.839Z,14.88
2022-12-02T22:33:13.461Z,15.48
2022-12-02T22:35:15.279Z,14.27
2022-12-02T22:37:16.876Z,15.10
2022-12-02T22:39:25.860Z,15.27
2022-12-02T22:41:27.946Z,13.73
2022-12-02T22:43:29.542Z,13.38
2022-12-02T22:45:31.132Z,15.52
2022-12-02T22:47:32.697Z,15.88
2022-12-02T22:49:34.324Z,14.20
2022-12-02T22:51:35.935Z,13.60
2022-12-02T22:53:37.571Z,13.45
2022-12-02T22:55:40.549Z,13.05
2022-12-02T22:57:42.061Z,15.05
2022-12-02T22:59:43.709Z,13.05
2022-12-02T23:01:45.513Z,16.17
2022-12-02T23:05:48.780Z,11.02
2022-12-02T23:09:53.630Z,12.52
2022-12-02T23:11:56.608Z,12.55
2022-12-02T23:13:58.182Z,11.90
2022-12-02T23:15:59.736Z,11.18
2022-12-02T23:18:01.351Z,13.73
2022-12-02T23:20:04.203Z,12.13
2022-12-02T23:22:05.729Z,15.82
2022-12-02T23:24:07.967Z,16.40
2022-12-02T23:26:09.629Z,13.68
2022-12-02T23:28:12.626Z,14.93
2022-12-02T23:30:14.398Z,13.65
2022-12-02T23:32:16.014Z,13.98
2022-12-02T23:34:17.641Z,14.20
2022-12-02T23:36:19.181Z,12.27
2022-12-02T23:38:20.746Z,12.48
2022-12-02T23:40:22.558Z,12.80
2022-12-02T23:42:24.161Z,14.35
2022-12-02T23:44:27.101Z,14.07
2022-12-02T23:46:28.694Z,12.65
2022-12-02T23:48:30.361Z,11.93
2022-12-02T23:50:31.931Z,15.75
2022-12-02T23:52:33.469Z,13.80
2022-12-02T23:54:35.039Z,14.65
2022-12-02T23:56:36.677Z,12.57
2022-12-02T23:58:38.224Z,12.00
